• Join FlightAware (Why Join?)
  • Login
  • US Flag 
10:21PM EDT


 

Airport Tracker/Info


-or-


 

Live Flight TrackerFlight Track Log ✈ UAL4234 ✈ 03-Jul-2013 ✈ CYOW - KORD

Flight Track Log - Related Links

Times and Time Zones

All times are in EDT time to prevent confusion due to time zone crossing. See the UAL4234 flight status page for this flight to view local times or setup timezone preferences in your user account.

Time Position Orientation Groundspeed Altitude Reporting Facility
EDT Latitude Longitude Course Direction KTS MPH feet Rate Location/Type
10:04AM 45.2667 -75.7333 227° Southwest 200 230 2,800  Level Montreal Center
10:05AM 45.2500 -75.8000 250° West 210 242 5,000 1,920 Climbing Montreal Center
10:06AM 45.2667 -75.9000 283° West 250 288 6,700 1,920 Climbing Montreal Center
10:07AM 45.1663 -76.2185 252° West  Level FlightAware Approximate
10:07AM 45.2833 -76.0000 283° West 250 288 8,900  Level Montreal Center
10:08AM 45.1401 -76.3320 252° West  Level FlightAware Approximate
10:08AM 45.2833 -76.1167 270° West 270 311 10,300  Level Montreal Center
10:09AM 45.2667 -76.2333 259° West 310 357 10,900 720 Climbing Montreal Center
10:10AM 45.2667 -76.3500 270° West 340 391 11,800 1,020 Climbing Montreal Center
10:10AM 45.2667 -76.4167 270° West 340 391 12,500 1,260 Climbing Toronto Center
10:11AM 45.2500 -76.5333 259° West 350 403 13,700 1,200 Climbing Toronto Center
10:12AM 45.2667 -76.6667 280° West 350 403 14,900 1,200 Climbing Toronto Center
10:13AM 45.2500 -76.8167 261° West 350 403 16,200 1,200 Climbing Toronto Center
10:14AM 45.2167 -76.9333 248° West 340 391 17,400 1,140 Climbing Toronto Center
10:15AM 45.1833 -77.0833 253° West 340 391 18,500 1,080 Climbing Toronto Center
10:16AM 45.1833 -77.1500 270° West 330 380 19,100 1,200 Climbing Montreal Center
10:17AM 45.1500 -77.2667 248° West 330 380 20,300 1,260 Climbing Montreal Center
10:17AM 45.1167 -77.3167 227° Southwest 330 380 21,000 1,260 Climbing Toronto Center
10:18AM 45.1167 -77.4333 270° West 330 380 22,200 1,200 Climbing Toronto Center
10:19AM 45.0833 -77.5500 248° West 330 380 23,400 1,200 Climbing Toronto Center
10:20AM 45.0500 -77.6667 248° West 330 380 24,700 1,200 Climbing Toronto Center
10:21AM 45.0167 -77.8000 251° West 320 368 25,900 1,140 Climbing Toronto Center
10:22AM 44.9833 -77.9167 248° West 320 368 27,000 1,020 Climbing Toronto Center
10:23AM 44.9500 -78.0500 251° West 320 368 28,000 1,020 Climbing Toronto Center
10:24AM 44.9167 -78.1500 245° Southwest 320 368 29,100 1,020 Climbing Toronto Center
10:25AM 44.8833 -78.2667 248° West 320 368 30,100 960 Climbing Toronto Center
10:26AM 44.8500 -78.4167 253° West 320 368 31,100 1,020 Climbing Toronto Center
10:27AM 44.8333 -78.5333 259° West 320 368 32,200 1,080 Climbing Toronto Center
10:28AM 44.8000 -78.6500 248° West 320 368 33,300 960 Climbing Toronto Center
10:29AM 44.7833 -78.7667 259° West 320 368 34,200 960 Climbing Toronto Center
10:30AM 44.7333 -78.8500 230° Southwest 310 357 35,300 900 Climbing Toronto Center
10:31AM 44.7000 -78.9833 251° West 300 345 36,000 300 Climbing Toronto Center
10:32AM 44.6667 -79.0667 241° Southwest 310 357 36,000  Level Toronto Center
10:33AM 44.6167 -79.1833 239° Southwest 330 380 36,000  Level Toronto Center
10:34AM 44.5833 -79.3000 248° West 350 403 36,000  Level Toronto Center
10:35AM 44.5333 -79.4500 245° Southwest 360 414 36,000  Level Toronto Center
10:36AM 44.4833 -79.5667 239° Southwest 360 414 36,000  Level Toronto Center
10:37AM 44.4333 -79.7000 242° Southwest 360 414 36,000  Level Toronto Center
10:38AM 44.3833 -79.8167 239° Southwest 360 414 36,000  Level Toronto Center
10:39AM 44.3333 -79.9333 239° Southwest 360 414 36,000  Level Toronto Center
10:40AM 44.3000 -80.0500 248° West 360 414 36,000  Level Toronto Center
10:41AM 44.2500 -80.1833 242° Southwest 360 414 36,000  Level Toronto Center
10:42AM 44.2000 -80.3000 239° Southwest 360 414 36,000  Level Toronto Center
10:43AM 44.1667 -80.4167 248° West 350 403 36,000  Level Toronto Center
10:44AM 44.1167 -80.5667 245° Southwest 350 403 36,000  Level Toronto Center
10:45AM 44.0667 -80.6833 239° Southwest 350 403 36,000  Level Toronto Center
10:46AM 44.0167 -80.8000 239° Southwest 350 403 36,000  Level Toronto Center
10:47AM 43.9667 -80.9000 235° Southwest 350 403 36,000  Level Toronto Center
10:48AM 43.9167 -81.0167 239° Southwest 350 403 36,000  Level Toronto Center
10:49AM 43.8667 -81.1333 239° Southwest 360 414 36,000  Level Toronto Center
10:50AM 43.8167 -81.2667 243° Southwest 360 414 36,000  Level Toronto Center
10:51AM 43.7833 -81.3833 248° West 370 426 36,000  Level Toronto Center
10:52AM 43.7333 -81.5333 245° Southwest 370 426 36,000  Level Toronto Center
10:53AM 43.6833 -81.6333 235° Southwest 370 426 36,000  Level Toronto Center
10:54AM 43.6333 -81.7833 245° Southwest 370 426 36,000  Level Toronto Center
10:55AM 43.5833 -81.8833 235° Southwest 360 414 36,000  Level Toronto Center
10:56AM 43.5333 -82.0000 239° Southwest 360 414 36,000  Level Toronto Center
10:57AM 43.4833 -82.1333 243° Southwest 360 414 36,000  Level Toronto Center
10:58AM 43.4333 -82.2500 239° Southwest 360 414 36,000  Level Toronto Center
10:59AM 43.3833 -82.3667 240° Southwest 360 414 36,000  Level Toronto Center
11:00AM 43.3333 -82.5000 243° Southwest 360 414 36,000  Level Toronto Center
11:01AM 43.2833 -82.6167 240° Southwest 360 414 36,000  Level Toronto Center
11:02AM 43.2333 -82.7167 236° Southwest 360 414 36,000  Level Toronto Center
11:03AM 43.2000 -82.8500 251° West 360 414 36,000  Level Toronto Center
11:04AM 43.1667 -83.0000 253° West 370 426 36,000  Level Toronto Center
11:05AM 43.1333 -83.1333 251° West 370 426 36,000  Level Toronto Center
11:06AM 43.0833 -83.2667 243° Southwest 380 437 36,000 -180 Level Toronto Center
11:07AM 43.0500 -83.4000 251° West 380 437 35,700 -900 Descending Toronto Center
11:08AM 43.0167 -83.5333 251° West 360 414 34,200 -1,500 Descending Toronto Center
11:09AM 42.9833 -83.6500 249° West 360 414 32,700 -1,140 Descending Toronto Center
11:10AM 42.9500 -83.8000 253° West 380 437 32,000 -420 Descending Toronto Center
11:11AM 42.9497 -83.9189 270° West 396 456 32,000  Level Chicago Center
11:11AM 42.9406 -84.0122 262° West 406 467 32,000  Level Cleveland Center
11:12AM 42.9258 -84.1617 262° West 406 467 32,000  Level Cleveland Center
11:13AM 42.9206 -84.2189 263° West 401 461 32,000  Level Chicago Center
11:14AM 42.9061 -84.3694 263° West 401 461 32,000  Level Chicago Center
11:15AM 42.8886 -84.5481 262° West 399 459 32,000  Level Chicago Center
11:16AM 42.8722 -84.6964 261° West 398 458 32,000  Level Chicago Center
11:17AM 42.8567 -84.8461 262° West 400 460 32,000  Level Chicago Center
11:18AM 42.8411 -84.9983 262° West 404 465 32,000  Level Chicago Center
11:19AM 42.8256 -85.1489 262° West 404 465 32,000  Level Chicago Center
11:20AM 42.8083 -85.2992 261° West 403 464 32,000 -300 Level Chicago Center
11:21AM 42.7922 -85.4478 262° West 399 459 31,400 -1,560 Descending Chicago Center
11:22AM 42.7644 -85.6186 258° West 383 441 28,800 -2,400 Descending Chicago Center
11:23AM 42.7386 -85.7672 257° West 397 457 26,500 -2,220 Descending Chicago Center
11:24AM 42.7094 -85.9242 256° West 419 482 24,300 -2,160 Descending Chicago Center
11:25AM 42.6800 -86.0833 256° West 430 495 22,100 -2,100 Descending Chicago Center
11:26AM 42.6528 -86.2353 256° West 418 481 20,100 -1,080 Descending Chicago Center
11:27AM 42.6247 -86.3811 255° West 402 463 20,000 -240 Descending Chicago Center
11:28AM 42.5969 -86.5267 256° West 398 458 19,700 -720 Descending Chicago Center
11:29AM 42.5669 -86.6889 256° West 392 451 18,600 -1,620 Descending Chicago Center
11:31AM 42.5308 -86.8392 252° West 393 452 16,400 -2,880 Descending Chicago Center
11:32AM 42.4942 -86.9728 250° West 381 438 12,700 -3,180 Descending Chicago Center
11:33AM 42.4567 -87.1017 249° West 370 426 10,000 -1,680 Descending Chicago Center
11:34AM 42.4283 -87.2089 250° West 299 344 9,300 -780 Descending Chicago Center
11:35AM 42.4014 -87.3058 249° West 277 319 8,400 -1,380 Descending Chicago Center
11:36AM 42.3719 -87.4128 250° West 271 312 6,500 -1,260 Descending Chicago Center
11:37AM 42.3089 -87.4333 194° South 260 299 5,900 -300 Descending Chicago Center
11:38AM 42.2450 -87.4317 179° South 233 268 6,000  Climbing Chicago Center
11:39AM 42.1831 -87.4317 180° South 225 259 6,000 -780 Level Chicago Center
11:40AM 42.1078 -87.4300 179° South 227 261 4,500 -1,020 Descending Chicago Center
11:41AM 42.0481 -87.4281 179° South 219 252 4,000 -300 Descending Chicago Center
11:42AM 42.0036 -87.4694 215° Southwest 223 257 4,000  Level Chicago Center
11:43AM 42.0014 -87.5486 268° West 219 252 4,000  Level Chicago Center
11:44AM 42.0028 -87.6189 272° West 205 236 4,000 -300 Level Chicago Center
11:45AM 42.0025 -87.7036 270° West 196 226 3,500 -780 Descending Chicago Center
11:46AM 42.0028 -87.7736 270° West 193 222 2,500 -900 Descending Chicago Center
11:47AM 42.0031 -87.8369 270° West 185 213 1,700 -780 Descending Chicago Center